sensor_id;sensor_type;location;lat;lon;timestamp;temperature;humidity
43987;DHT22;29650;47.378;8.300;2022-10-31T00:02:05;10.80;99.90
43987;DHT22;29650;47.378;8.300;2022-10-31T00:04:32;10.80;99.90
43987;DHT22;29650;47.378;8.300;2022-10-31T00:07:00;10.80;99.90
43987;DHT22;29650;47.378;8.300;2022-10-31T00:09:27;10.70;99.90
43987;DHT22;29650;47.378;8.300;2022-10-31T00:11:54;10.70;99.90
43987;DHT22;29650;47.378;8.300;2022-10-31T00:14:21;10.60;99.90
43987;DHT22;29650;47.378;8.300;2022-10-31T00:16:48;10.50;99.90
43987;DHT22;29650;47.378;8.300;2022-10-31T00:19:16;10.50;99.90
43987;DHT22;29650;47.378;8.300;2022-10-31T00:21:43;10.40;99.90
43987;DHT22;29650;47.378;8.300;2022-10-31T00:24:11;10.50;99.90
43987;DHT22;29650;47.378;8.300;2022-10-31T00:26:38;10.40;99.90
43987;DHT22;29650;47.378;8.300;2022-10-31T00:29:05;10.40;99.90
43987;DHT22;29650;47.378;8.300;2022-10-31T00:31:32;10.40;99.90
43987;DHT22;29650;47.378;8.300;2022-10-31T00:33:59;10.40;99.90
43987;DHT22;29650;47.378;8.300;2022-10-31T00:36:28;10.40;99.90
43987;DHT22;29650;47.378;8.300;2022-10-31T00:38:55;10.50;99.90
43987;DHT22;29650;47.378;8.300;2022-10-31T00:41:23;10.60;99.90
43987;DHT22;29650;47.378;8.300;2022-10-31T00:43:51;10.70;99.90
43987;DHT22;29650;47.378;8.300;2022-10-31T00:46:17;10.50;99.90
43987;DHT22;29650;47.378;8.300;2022-10-31T00:48:44;10.60;99.90
43987;DHT22;29650;47.378;8.300;2022-10-31T00:51:11;10.50;99.90
43987;DHT22;29650;47.378;8.300;2022-10-31T00:53:38;10.50;99.90
43987;DHT22;29650;47.378;8.300;2022-10-31T00:56:06;10.50;99.90
43987;DHT22;29650;47.378;8.300;2022-10-31T00:58:34;10.50;99.90
43987;DHT22;29650;47.378;8.300;2022-10-31T01:01:01;10.60;99.90
43987;DHT22;29650;47.378;8.300;2022-10-31T01:03:30;10.60;99.90
43987;DHT22;29650;47.378;8.300;2022-10-31T01:06:01;10.50;99.90
43987;DHT22;29650;47.378;8.300;2022-10-31T01:08:29;10.50;99.90
43987;DHT22;29650;47.378;8.300;2022-10-31T01:11:05;10.30;99.90
43987;DHT22;29650;47.378;8.300;2022-10-31T01:13:34;10.40;99.90
43987;DHT22;29650;47.378;8.300;2022-10-31T01:16:02;10.60;99.90
43987;DHT22;29650;47.378;8.300;2022-10-31T01:18:29;10.50;99.90
43987;DHT22;29650;47.378;8.300;2022-10-31T01:20:58;10.70;99.90
43987;DHT22;29650;47.378;8.300;2022-10-31T01:23:25;10.70;99.90
43987;DHT22;29650;47.378;8.300;2022-10-31T01:26:06;10.70;99.90
43987;DHT22;29650;47.378;8.300;2022-10-31T01:28:36;10.60;99.90
43987;DHT22;29650;47.378;8.300;2022-10-31T01:31:05;10.70;99.90
43987;DHT22;29650;47.378;8.300;2022-10-31T01:33:33;10.70;99.90
43987;DHT22;29650;47.378;8.300;2022-10-31T01:36:00;10.70;99.90
43987;DHT22;29650;47.378;8.300;2022-10-31T01:38:27;10.70;99.90
43987;DHT22;29650;47.378;8.300;2022-10-31T01:40:54;10.60;99.90
43987;DHT22;29650;47.378;8.300;2022-10-31T01:43:21;10.60;99.90
43987;DHT22;29650;47.378;8.300;2022-10-31T01:45:52;10.60;99.90
43987;DHT22;29650;47.378;8.300;2022-10-31T01:48:23;10.60;99.90
43987;DHT22;29650;47.378;8.300;2022-10-31T01:50:53;10.60;99.90
43987;DHT22;29650;47.378;8.300;2022-10-31T01:53:21;10.60;99.90
43987;DHT22;29650;47.378;8.300;2022-10-31T01:55:49;10.70;99.90
43987;DHT22;29650;47.378;8.300;2022-10-31T01:58:19;10.70;99.90
43987;DHT22;29650;47.378;8.300;2022-10-31T02:00:53;10.60;99.90
43987;DHT22;29650;47.378;8.300;2022-10-31T02:03:22;10.60;99.90
43987;DHT22;29650;47.378;8.300;2022-10-31T02:05:50;10.70;99.90
43987;DHT22;29650;47.378;8.300;2022-10-31T02:08:21;10.70;99.90
43987;DHT22;29650;47.378;8.300;2022-10-31T02:10:50;10.60;99.90
43987;DHT22;29650;47.378;8.300;2022-10-31T02:13:17;10.60;99.90
43987;DHT22;29650;47.378;8.300;2022-10-31T02:15:48;10.50;99.90
43987;DHT22;29650;47.378;8.300;2022-10-31T02:18:18;10.50;99.90
43987;DHT22;29650;47.378;8.300;2022-10-31T02:20:48;10.60;99.90
43987;DHT22;29650;47.378;8.300;2022-10-31T02:26:44;10.50;99.90
43987;DHT22;29650;47.378;8.300;2022-10-31T02:32:12;10.50;99.90
43987;DHT22;29650;47.378;8.300;2022-10-31T02:34:46;10.60;99.90
43987;DHT22;29650;47.378;8.300;2022-10-31T02:37:20;10.50;99.90
43987;DHT22;29650;47.378;8.300;2022-10-31T02:39:55;10.60;99.90
43987;DHT22;29650;47.378;8.300;2022-10-31T02:42:29;9.50;99.90
43987;DHT22;29650;47.378;8.300;2022-10-31T02:45:04;10.50;99.90
43987;DHT22;29650;47.378;8.300;2022-10-31T02:47:37;10.40;99.90
43987;DHT22;29650;47.378;8.300;2022-10-31T02:50:07;10.50;99.90
43987;DHT22;29650;47.378;8.300;2022-10-31T02:52:36;10.50;99.90
43987;DHT22;29650;47.378;8.300;2022-10-31T02:55:10;10.50;99.90
43987;DHT22;29650;47.378;8.300;2022-10-31T02:57:38;10.50;99.90
43987;DHT22;29650;47.378;8.300;2022-10-31T03:00:08;10.60;99.90
43987;DHT22;29650;47.378;8.300;2022-10-31T03:02:55;10.60;99.90
43987;DHT22;29650;47.378;8.300;2022-10-31T03:05:34;10.60;99.90
43987;DHT22;29650;47.378;8.300;2022-10-31T03:08:10;10.60;99.90
43987;DHT22;29650;47.378;8.300;2022-10-31T03:10:42;10.50;99.90
43987;DHT22;29650;47.378;8.300;2022-10-31T03:13:16;10.60;99.90
43987;DHT22;29650;47.378;8.300;2022-10-31T03:15:50;10.60;99.90
43987;DHT22;29650;47.378;8.300;2022-10-31T03:18:21;10.60;99.90
43987;DHT22;29650;47.378;8.300;2022-10-31T03:20:55;10.60;99.90
43987;DHT22;29650;47.378;8.300;2022-10-31T03:23:24;10.60;99.90
43987;DHT22;29650;47.378;8.300;2022-10-31T03:25:53;10.60;99.90
43987;DHT22;29650;47.378;8.300;2022-10-31T03:28:25;10.60;99.90
43987;DHT22;29650;47.378;8.300;2022-10-31T03:30:55;10.60;99.90
43987;DHT22;29650;47.378;8.300;2022-10-31T03:33:28;10.50;99.90
43987;DHT22;29650;47.378;8.300;2022-10-31T03:35:59;10.50;99.90
43987;DHT22;29650;47.378;8.300;2022-10-31T03:38:27;10.50;99.90
43987;DHT22;29650;47.378;8.300;2022-10-31T03:40:57;10.40;99.90
43987;DHT22;29650;47.378;8.300;2022-10-31T03:43:28;10.40;99.90
43987;DHT22;29650;47.378;8.300;2022-10-31T03:45:57;10.40;99.90
43987;DHT22;29650;47.378;8.300;2022-10-31T03:48:26;10.40;99.90
43987;DHT22;29650;47.378;8.300;2022-10-31T03:50:59;10.40;99.90
43987;DHT22;29650;47.378;8.300;2022-10-31T03:53:33;10.40;99.90
43987;DHT22;29650;47.378;8.300;2022-10-31T03:56:04;10.40;99.90
43987;DHT22;29650;47.378;8.300;2022-10-31T03:58:36;10.50;99.90
43987;DHT22;29650;47.378;8.300;2022-10-31T04:01:06;10.60;99.90
43987;DHT22;29650;47.378;8.300;2022-10-31T04:03:37;10.60;99.90
43987;DHT22;29650;47.378;8.300;2022-10-31T04:06:07;10.50;99.90
43987;DHT22;29650;47.378;8.300;2022-10-31T04:08:38;10.40;99.90
43987;DHT22;29650;47.378;8.300;2022-10-31T04:11:08;10.40;99.90
43987;DHT22;29650;47.378;8.300;2022-10-31T04:13:37;10.30;99.90
43987;DHT22;29650;47.378;8.300;2022-10-31T04:16:06;10.40;99.90
43987;DHT22;29650;47.378;8.300;2022-10-31T04:18:33;10.50;99.90
43987;DHT22;29650;47.378;8.300;2022-10-31T04:21:03;10.40;99.90
43987;DHT22;29650;47.378;8.300;2022-10-31T04:23:31;10.50;99.90
43987;DHT22;29650;47.378;8.300;2022-10-31T04:25:58;10.40;99.90
43987;DHT22;29650;47.378;8.300;2022-10-31T04:28:25;10.40;99.90
43987;DHT22;29650;47.378;8.300;2022-10-31T04:30:52;10.50;99.90
43987;DHT22;29650;47.378;8.300;2022-10-31T04:33:19;10.40;99.90
43987;DHT22;29650;47.378;8.300;2022-10-31T04:35:47;10.40;99.90
43987;DHT22;29650;47.378;8.300;2022-10-31T04:38:15;10.60;99.90
43987;DHT22;29650;47.378;8.300;2022-10-31T04:40:42;10.60;99.90
43987;DHT22;29650;47.378;8.300;2022-10-31T04:43:09;10.50;99.90
43987;DHT22;29650;47.378;8.300;2022-10-31T04:45:37;10.40;99.90
43987;DHT22;29650;47.378;8.300;2022-10-31T04:48:04;10.50;99.90
43987;DHT22;29650;47.378;8.300;2022-10-31T04:50:31;10.50;99.90
43987;DHT22;29650;47.378;8.300;2022-10-31T04:52:58;10.40;99.90
43987;DHT22;29650;47.378;8.300;2022-10-31T04:55:26;7.80;99.90
43987;DHT22;29650;47.378;8.300;2022-10-31T04:57:53;10.30;99.90
43987;DHT22;29650;47.378;8.300;2022-10-31T05:00:22;10.40;99.90
43987;DHT22;29650;47.378;8.300;2022-10-31T05:02:50;10.40;99.90
43987;DHT22;29650;47.378;8.300;2022-10-31T05:05:19;10.40;99.90
43987;DHT22;29650;47.378;8.300;2022-10-31T05:07:47;10.20;99.90
43987;DHT22;29650;47.378;8.300;2022-10-31T05:10:17;10.40;99.90
43987;DHT22;29650;47.378;8.300;2022-10-31T05:12:50;10.50;99.90
43987;DHT22;29650;47.378;8.300;2022-10-31T05:15:18;10.60;99.90
43987;DHT22;29650;47.378;8.300;2022-10-31T05:17:45;10.60;99.90
43987;DHT22;29650;47.378;8.300;2022-10-31T05:20:13;10.60;99.90
43987;DHT22;29650;47.378;8.300;2022-10-31T05:22:42;10.60;99.90
43987;DHT22;29650;47.378;8.300;2022-10-31T05:25:10;10.50;99.90
43987;DHT22;29650;47.378;8.300;2022-10-31T05:27:39;10.50;99.90
43987;DHT22;29650;47.378;8.300;2022-10-31T05:30:09;10.50;99.90
43987;DHT22;29650;47.378;8.300;2022-10-31T05:32:37;10.60;99.90
43987;DHT22;29650;47.378;8.300;2022-10-31T05:35:05;10.60;99.90
43987;DHT22;29650;47.378;8.300;2022-10-31T05:37:33;10.60;99.90
43987;DHT22;29650;47.378;8.300;2022-10-31T05:40:00;10.70;99.90
43987;DHT22;29650;47.378;8.300;2022-10-31T05:42:27;10.60;99.90
43987;DHT22;29650;47.378;8.300;2022-10-31T05:44:54;10.40;99.90
43987;DHT22;29650;47.378;8.300;2022-10-31T05:47:23;10.30;99.90
43987;DHT22;29650;47.378;8.300;2022-10-31T05:49:50;10.40;99.90
43987;DHT22;29650;47.378;8.300;2022-10-31T05:52:17;10.50;99.90
43987;DHT22;29650;47.378;8.300;2022-10-31T05:54:44;10.50;99.90
43987;DHT22;29650;47.378;8.300;2022-10-31T05:57:11;10.40;99.90
43987;DHT22;29650;47.378;8.300;2022-10-31T05:59:38;10.50;99.90
43987;DHT22;29650;47.378;8.300;2022-10-31T06:02:05;10.40;99.90
43987;DHT22;29650;47.378;8.300;2022-10-31T06:04:33;10.50;99.90
43987;DHT22;29650;47.378;8.300;2022-10-31T06:07:00;10.50;99.90
43987;DHT22;29650;47.378;8.300;2022-10-31T06:09:27;10.50;99.90
43987;DHT22;29650;47.378;8.300;2022-10-31T06:11:54;10.50;99.90
43987;DHT22;29650;47.378;8.300;2022-10-31T06:14:21;10.60;99.90
43987;DHT22;29650;47.378;8.300;2022-10-31T06:16:48;10.70;99.90
43987;DHT22;29650;47.378;8.300;2022-10-31T06:19:15;10.70;99.90
43987;DHT22;29650;47.378;8.300;2022-10-31T06:21:43;10.70;99.90
43987;DHT22;29650;47.378;8.300;2022-10-31T06:24:10;10.60;99.90
43987;DHT22;29650;47.378;8.300;2022-10-31T06:26:37;10.60;99.90
43987;DHT22;29650;47.378;8.300;2022-10-31T06:29:04;10.50;99.90
43987;DHT22;29650;47.378;8.300;2022-10-31T06:31:31;10.40;99.90
43987;DHT22;29650;47.378;8.300;2022-10-31T06:33:57;10.40;99.90
43987;DHT22;29650;47.378;8.300;2022-10-31T06:36:24;10.30;99.90
43987;DHT22;29650;47.378;8.300;2022-10-31T06:38:53;10.40;99.90
43987;DHT22;29650;47.378;8.300;2022-10-31T06:41:19;10.50;99.90
43987;DHT22;29650;47.378;8.300;2022-10-31T06:43:47;10.50;99.90
43987;DHT22;29650;47.378;8.300;2022-10-31T06:46:13;10.60;99.90
43987;DHT22;29650;47.378;8.300;2022-10-31T06:48:40;10.60;99.90
43987;DHT22;29650;47.378;8.300;2022-10-31T06:51:08;10.70;99.90
43987;DHT22;29650;47.378;8.300;2022-10-31T06:53:35;10.70;99.90
43987;DHT22;29650;47.378;8.300;2022-10-31T06:56:03;10.70;99.90
43987;DHT22;29650;47.378;8.300;2022-10-31T06:58:30;10.60;99.90
43987;DHT22;29650;47.378;8.300;2022-10-31T07:00:59;10.70;99.90
43987;DHT22;29650;47.378;8.300;2022-10-31T07:03:26;10.80;99.90
43987;DHT22;29650;47.378;8.300;2022-10-31T07:05:55;10.90;99.90
43987;DHT22;29650;47.378;8.300;2022-10-31T07:08:22;10.90;99.90
43987;DHT22;29650;47.378;8.300;2022-10-31T07:10:52;10.90;99.90
43987;DHT22;29650;47.378;8.300;2022-10-31T07:13:21;10.90;99.90
43987;DHT22;29650;47.378;8.300;2022-10-31T07:15:52;10.90;99.90
43987;DHT22;29650;47.378;8.300;2022-10-31T07:18:20;10.90;99.90
43987;DHT22;29650;47.378;8.300;2022-10-31T07:20:47;11.00;99.90
43987;DHT22;29650;47.378;8.300;2022-10-31T07:23:14;10.90;99.90
43987;DHT22;29650;47.378;8.300;2022-10-31T07:25:41;10.80;99.90
43987;DHT22;29650;47.378;8.300;2022-10-31T07:28:08;10.90;99.90
43987;DHT22;29650;47.378;8.300;2022-10-31T07:30:36;10.90;99.90
43987;DHT22;29650;47.378;8.300;2022-10-31T07:33:04;10.90;99.90
43987;DHT22;29650;47.378;8.300;2022-10-31T07:35:31;10.90;99.90
43987;DHT22;29650;47.378;8.300;2022-10-31T07:38:07;11.00;99.90
43987;DHT22;29650;47.378;8.300;2022-10-31T07:40:34;11.00;99.90
43987;DHT22;29650;47.378;8.300;2022-10-31T07:43:01;10.90;99.90
43987;DHT22;29650;47.378;8.300;2022-10-31T07:45:28;10.90;99.90
43987;DHT22;29650;47.378;8.300;2022-10-31T07:47:56;11.00;99.90
43987;DHT22;29650;47.378;8.300;2022-10-31T07:50:25;11.00;99.90
43987;DHT22;29650;47.378;8.300;2022-10-31T07:52:59;11.00;99.90
43987;DHT22;29650;47.378;8.300;2022-10-31T07:55:27;11.00;99.90
43987;DHT22;29650;47.378;8.300;2022-10-31T07:57:58;11.10;99.90
43987;DHT22;29650;47.378;8.300;2022-10-31T08:00:25;11.10;99.90
43987;DHT22;29650;47.378;8.300;2022-10-31T08:03:01;11.20;99.90
43987;DHT22;29650;47.378;8.300;2022-10-31T08:05:28;11.30;99.90
43987;DHT22;29650;47.378;8.300;2022-10-31T08:07:56;11.30;99.90
43987;DHT22;29650;47.378;8.300;2022-10-31T08:10:23;11.40;99.90
43987;DHT22;29650;47.378;8.300;2022-10-31T08:12:55;11.40;99.90
43987;DHT22;29650;47.378;8.300;2022-10-31T08:15:23;11.20;99.90
43987;DHT22;29650;47.378;8.300;2022-10-31T08:17:50;11.30;99.90
43987;DHT22;29650;47.378;8.300;2022-10-31T08:20:18;11.30;99.90
43987;DHT22;29650;47.378;8.300;2022-10-31T08:22:53;12.80;99.90
43987;DHT22;29650;47.378;8.300;2022-10-31T08:25:20;11.20;99.90
43987;DHT22;29650;47.378;8.300;2022-10-31T08:27:49;11.30;99.90
43987;DHT22;29650;47.378;8.300;2022-10-31T08:30:17;11.30;99.90
43987;DHT22;29650;47.378;8.300;2022-10-31T08:32:44;11.50;99.90
43987;DHT22;29650;47.378;8.300;2022-10-31T08:35:11;11.50;99.90
43987;DHT22;29650;47.378;8.300;2022-10-31T08:37:39;11.40;99.90
43987;DHT22;29650;47.378;8.300;2022-10-31T08:40:07;11.50;99.90
43987;DHT22;29650;47.378;8.300;2022-10-31T08:42:34;11.50;99.90
43987;DHT22;29650;47.378;8.300;2022-10-31T08:45:02;11.60;99.90
43987;DHT22;29650;47.378;8.300;2022-10-31T08:47:29;11.50;99.90
43987;DHT22;29650;47.378;8.300;2022-10-31T08:49:56;11.80;99.90
43987;DHT22;29650;47.378;8.300;2022-10-31T08:52:23;11.90;99.90
43987;DHT22;29650;47.378;8.300;2022-10-31T08:54:53;11.80;99.90
43987;DHT22;29650;47.378;8.300;2022-10-31T08:57:20;11.90;99.90
43987;DHT22;29650;47.378;8.300;2022-10-31T08:59:47;11.70;99.90
43987;DHT22;29650;47.378;8.300;2022-10-31T09:02:14;11.90;99.90
43987;DHT22;29650;47.378;8.300;2022-10-31T09:04:41;12.00;99.90
43987;DHT22;29650;47.378;8.300;2022-10-31T09:07:07;12.00;99.90
43987;DHT22;29650;47.378;8.300;2022-10-31T09:09:34;11.90;99.90
43987;DHT22;29650;47.378;8.300;2022-10-31T09:12:03;11.80;99.90
43987;DHT22;29650;47.378;8.300;2022-10-31T09:14:30;11.80;99.90
43987;DHT22;29650;47.378;8.300;2022-10-31T09:16:57;12.00;99.90
43987;DHT22;29650;47.378;8.300;2022-10-31T09:19:24;12.00;99.90
43987;DHT22;29650;47.378;8.300;2022-10-31T09:21:52;12.00;99.90
43987;DHT22;29650;47.378;8.300;2022-10-31T09:24:20;12.10;99.90
43987;DHT22;29650;47.378;8.300;2022-10-31T09:26:47;12.00;99.90
43987;DHT22;29650;47.378;8.300;2022-10-31T09:29:15;12.00;99.90
43987;DHT22;29650;47.378;8.300;2022-10-31T09:31:42;12.10;99.90
43987;DHT22;29650;47.378;8.300;2022-10-31T09:34:09;12.20;99.90
43987;DHT22;29650;47.378;8.300;2022-10-31T09:36:36;12.10;99.90
43987;DHT22;29650;47.378;8.300;2022-10-31T09:39:03;12.10;99.90
43987;DHT22;29650;47.378;8.300;2022-10-31T09:41:37;12.20;99.90
43987;DHT22;29650;47.378;8.300;2022-10-31T09:44:11;12.10;99.90
43987;DHT22;29650;47.378;8.300;2022-10-31T09:46:49;12.00;99.90
43987;DHT22;29650;47.378;8.300;2022-10-31T09:49:34;12.00;99.90
43987;DHT22;29650;47.378;8.300;2022-10-31T09:52:08;12.00;99.90
43987;DHT22;29650;47.378;8.300;2022-10-31T09:54:38;12.00;99.90
43987;DHT22;29650;47.378;8.300;2022-10-31T09:57:12;12.00;99.90
43987;DHT22;29650;47.378;8.300;2022-10-31T09:59:41;12.00;99.90
43987;DHT22;29650;47.378;8.300;2022-10-31T10:02:13;12.10;99.90
43987;DHT22;29650;47.378;8.300;2022-10-31T10:04:46;12.30;99.90
43987;DHT22;29650;47.378;8.300;2022-10-31T10:07:19;12.10;99.90
43987;DHT22;29650;47.378;8.300;2022-10-31T10:09:50;12.30;99.90
43987;DHT22;29650;47.378;8.300;2022-10-31T10:12:19;12.30;99.90
43987;DHT22;29650;47.378;8.300;2022-10-31T10:15:05;12.30;99.90
43987;DHT22;29650;47.378;8.300;2022-10-31T10:17:40;12.40;99.90
43987;DHT22;29650;47.378;8.300;2022-10-31T10:20:22;12.30;99.90
43987;DHT22;29650;47.378;8.300;2022-10-31T10:22:54;12.30;99.90
43987;DHT22;29650;47.378;8.300;2022-10-31T10:25:28;12.40;99.90
43987;DHT22;29650;47.378;8.300;2022-10-31T10:28:08;12.30;99.90
43987;DHT22;29650;47.378;8.300;2022-10-31T10:30:39;12.40;99.90
43987;DHT22;29650;47.378;8.300;2022-10-31T10:33:12;12.40;99.90
43987;DHT22;29650;47.378;8.300;2022-10-31T10:35:43;12.40;99.90
43987;DHT22;29650;47.378;8.300;2022-10-31T10:38:17;12.40;99.90
43987;DHT22;29650;47.378;8.300;2022-10-31T10:40:46;12.40;99.90
43987;DHT22;29650;47.378;8.300;2022-10-31T10:43:22;12.40;99.90
43987;DHT22;29650;47.378;8.300;2022-10-31T10:46:16;12.50;99.90
43987;DHT22;29650;47.378;8.300;2022-10-31T10:49:11;12.50;99.90
43987;DHT22;29650;47.378;8.300;2022-10-31T10:51:43;12.50;99.90
43987;DHT22;29650;47.378;8.300;2022-10-31T10:54:34;12.50;99.90
43987;DHT22;29650;47.378;8.300;2022-10-31T10:57:15;12.50;99.90
43987;DHT22;29650;47.378;8.300;2022-10-31T10:59:47;12.50;99.90
43987;DHT22;29650;47.378;8.300;2022-10-31T11:02:17;12.60;99.90
43987;DHT22;29650;47.378;8.300;2022-10-31T11:04:49;12.50;99.90
43987;DHT22;29650;47.378;8.300;2022-10-31T11:07:16;12.70;99.90
43987;DHT22;29650;47.378;8.300;2022-10-31T11:09:43;12.70;99.90
43987;DHT22;29650;47.378;8.300;2022-10-31T11:12:17;12.70;99.90
43987;DHT22;29650;47.378;8.300;2022-10-31T11:14:48;12.70;99.90
43987;DHT22;29650;47.378;8.300;2022-10-31T11:17:20;12.70;99.90
43987;DHT22;29650;47.378;8.300;2022-10-31T11:20:00;12.90;99.90
43987;DHT22;29650;47.378;8.300;2022-10-31T11:22:27;13.00;99.90
43987;DHT22;29650;47.378;8.300;2022-10-31T11:24:54;13.10;99.90
43987;DHT22;29650;47.378;8.300;2022-10-31T11:27:23;13.00;99.90
43987;DHT22;29650;47.378;8.300;2022-10-31T11:29:50;13.20;99.90
43987;DHT22;29650;47.378;8.300;2022-10-31T11:32:21;13.30;99.90
43987;DHT22;29650;47.378;8.300;2022-10-31T11:34:51;13.30;99.90
43987;DHT22;29650;47.378;8.300;2022-10-31T11:37:21;13.50;99.90
43987;DHT22;29650;47.378;8.300;2022-10-31T11:39:51;13.40;99.90
43987;DHT22;29650;47.378;8.300;2022-10-31T11:42:22;13.40;99.90
43987;DHT22;29650;47.378;8.300;2022-10-31T11:44:50;13.40;99.90
43987;DHT22;29650;47.378;8.300;2022-10-31T11:47:23;13.30;99.90
43987;DHT22;29650;47.378;8.300;2022-10-31T11:49:51;13.40;99.90
43987;DHT22;29650;47.378;8.300;2022-10-31T11:52:22;13.60;99.90
43987;DHT22;29650;47.378;8.300;2022-10-31T11:54:52;13.60;99.90
43987;DHT22;29650;47.378;8.300;2022-10-31T11:57:25;13.60;99.90
43987;DHT22;29650;47.378;8.300;2022-10-31T11:59:54;13.80;99.90
43987;DHT22;29650;47.378;8.300;2022-10-31T12:02:21;13.80;99.90
43987;DHT22;29650;47.378;8.300;2022-10-31T12:04:54;13.90;99.90
43987;DHT22;29650;47.378;8.300;2022-10-31T12:07:24;13.90;99.90
43987;DHT22;29650;47.378;8.300;2022-10-31T12:09:51;14.00;99.90
43987;DHT22;29650;47.378;8.300;2022-10-31T12:12:38;14.20;99.90
43987;DHT22;29650;47.378;8.300;2022-10-31T12:15:30;14.40;99.90
43987;DHT22;29650;47.378;8.300;2022-10-31T12:18:22;14.50;99.90
43987;DHT22;29650;47.378;8.300;2022-10-31T12:21:09;14.50;99.90
43987;DHT22;29650;47.378;8.300;2022-10-31T12:23:47;14.50;99.90
43987;DHT22;29650;47.378;8.300;2022-10-31T12:26:21;14.60;99.90
43987;DHT22;29650;47.378;8.300;2022-10-31T12:29:03;14.70;99.90
43987;DHT22;29650;47.378;8.300;2022-10-31T12:31:46;14.80;99.90
43987;DHT22;29650;47.378;8.300;2022-10-31T12:34:46;14.90;99.90
43987;DHT22;29650;47.378;8.300;2022-10-31T12:37:25;14.90;99.90
43987;DHT22;29650;47.378;8.300;2022-10-31T12:40:10;15.00;99.90
43987;DHT22;29650;47.378;8.300;2022-10-31T12:42:50;15.30;99.90
43987;DHT22;29650;47.378;8.300;2022-10-31T12:45:31;15.30;99.90
43987;DHT22;29650;47.378;8.300;2022-10-31T12:48:22;15.30;99.90
43987;DHT22;29650;47.378;8.300;2022-10-31T12:50:56;15.20;99.90
43987;DHT22;29650;47.378;8.300;2022-10-31T12:53:44;15.30;99.90
43987;DHT22;29650;47.378;8.300;2022-10-31T12:56:28;15.40;99.90
43987;DHT22;29650;47.378;8.300;2022-10-31T12:59:00;15.30;99.90
43987;DHT22;29650;47.378;8.300;2022-10-31T13:01:32;15.30;99.90
43987;DHT22;29650;47.378;8.300;2022-10-31T13:04:03;15.50;99.90
43987;DHT22;29650;47.378;8.300;2022-10-31T13:06:35;15.70;99.90
43987;DHT22;29650;47.378;8.300;2022-10-31T13:09:07;15.60;99.90
43987;DHT22;29650;47.378;8.300;2022-10-31T13:11:38;15.70;99.90
43987;DHT22;29650;47.378;8.300;2022-10-31T13:14:09;15.70;99.90
43987;DHT22;29650;47.378;8.300;2022-10-31T13:16:40;15.70;99.90
43987;DHT22;29650;47.378;8.300;2022-10-31T13:19:13;15.90;99.90
43987;DHT22;29650;47.378;8.300;2022-10-31T13:21:49;15.80;99.90
43987;DHT22;29650;47.378;8.300;2022-10-31T13:24:22;15.90;99.90
43987;DHT22;29650;47.378;8.300;2022-10-31T13:26:54;15.90;99.90
43987;DHT22;29650;47.378;8.300;2022-10-31T13:29:26;15.00;99.90
43987;DHT22;29650;47.378;8.300;2022-10-31T13:31:54;16.20;99.90
43987;DHT22;29650;47.378;8.300;2022-10-31T13:34:26;16.10;99.90
43987;DHT22;29650;47.378;8.300;2022-10-31T13:37:01;16.10;99.90
43987;DHT22;29650;47.378;8.300;2022-10-31T13:39:45;16.20;99.90
43987;DHT22;29650;47.378;8.300;2022-10-31T13:42:21;16.20;99.90
43987;DHT22;29650;47.378;8.300;2022-10-31T13:44:50;16.20;99.90
43987;DHT22;29650;47.378;8.300;2022-10-31T13:47:23;16.20;99.90
43987;DHT22;29650;47.378;8.300;2022-10-31T13:49:50;16.10;99.90
43987;DHT22;29650;47.378;8.300;2022-10-31T13:52:23;15.90;99.90
43987;DHT22;29650;47.378;8.300;2022-10-31T13:54:52;15.80;99.90
43987;DHT22;29650;47.378;8.300;2022-10-31T13:57:31;15.90;99.90
43987;DHT22;29650;47.378;8.300;2022-10-31T14:00:02;15.90;99.90
43987;DHT22;29650;47.378;8.300;2022-10-31T14:02:31;16.00;99.90
43987;DHT22;29650;47.378;8.300;2022-10-31T14:05:00;16.10;99.90
43987;DHT22;29650;47.378;8.300;2022-10-31T14:07:28;16.10;99.90
43987;DHT22;29650;47.378;8.300;2022-10-31T14:09:57;16.20;99.90
43987;DHT22;29650;47.378;8.300;2022-10-31T14:12:29;16.00;99.90
43987;DHT22;29650;47.378;8.300;2022-10-31T14:14:59;16.30;99.90
43987;DHT22;29650;47.378;8.300;2022-10-31T14:17:44;16.30;99.90
43987;DHT22;29650;47.378;8.300;2022-10-31T14:20:34;16.40;99.90
43987;DHT22;29650;47.378;8.300;2022-10-31T14:23:29;16.50;99.90
43987;DHT22;29650;47.378;8.300;2022-10-31T14:26:07;16.50;99.90
43987;DHT22;29650;47.378;8.300;2022-10-31T14:28:44;16.60;99.90
43987;DHT22;29650;47.378;8.300;2022-10-31T14:31:29;16.40;99.90
43987;DHT22;29650;47.378;8.300;2022-10-31T14:33:58;16.30;99.90
43987;DHT22;29650;47.378;8.300;2022-10-31T14:36:33;16.40;99.90
43987;DHT22;29650;47.378;8.300;2022-10-31T14:39:10;16.50;99.90
43987;DHT22;29650;47.378;8.300;2022-10-31T14:41:58;16.60;99.90
43987;DHT22;29650;47.378;8.300;2022-10-31T14:44:43;16.70;99.90
43987;DHT22;29650;47.378;8.300;2022-10-31T14:47:19;16.80;99.90
43987;DHT22;29650;47.378;8.300;2022-10-31T14:50:02;16.80;99.90
43987;DHT22;29650;47.378;8.300;2022-10-31T14:52:32;16.90;99.90
43987;DHT22;29650;47.378;8.300;2022-10-31T14:55:01;16.80;99.90
43987;DHT22;29650;47.378;8.300;2022-10-31T14:57:34;16.50;99.90
43987;DHT22;29650;47.378;8.300;2022-10-31T15:00:06;16.40;99.90
43987;DHT22;29650;47.378;8.300;2022-10-31T15:02:36;16.40;99.90
43987;DHT22;29650;47.378;8.300;2022-10-31T15:05:08;16.60;99.90
43987;DHT22;29650;47.378;8.300;2022-10-31T15:07:35;16.60;99.90
43987;DHT22;29650;47.378;8.300;2022-10-31T15:10:19;16.50;99.90
43987;DHT22;29650;47.378;8.300;2022-10-31T15:12:46;16.50;99.90
43987;DHT22;29650;47.378;8.300;2022-10-31T15:15:18;16.30;99.90
43987;DHT22;29650;47.378;8.300;2022-10-31T15:17:48;16.40;99.90
43987;DHT22;29650;47.378;8.300;2022-10-31T15:20:19;16.40;99.90
43987;DHT22;29650;47.378;8.300;2022-10-31T15:22:47;16.30;99.90
43987;DHT22;29650;47.378;8.300;2022-10-31T15:25:18;16.20;99.90
43987;DHT22;29650;47.378;8.300;2022-10-31T15:27:46;16.10;99.90
43987;DHT22;29650;47.378;8.300;2022-10-31T15:30:20;15.90;99.90
43987;DHT22;29650;47.378;8.300;2022-10-31T15:32:48;15.70;99.90
43987;DHT22;29650;47.378;8.300;2022-10-31T15:35:22;15.50;99.90
43987;DHT22;29650;47.378;8.300;2022-10-31T15:37:51;15.40;99.90
43987;DHT22;29650;47.378;8.300;2022-10-31T15:40:19;15.20;99.90
43987;DHT22;29650;47.378;8.300;2022-10-31T15:42:50;15.20;99.90
43987;DHT22;29650;47.378;8.300;2022-10-31T15:45:22;15.10;99.90
43987;DHT22;29650;47.378;8.300;2022-10-31T15:47:54;15.00;99.90
43987;DHT22;29650;47.378;8.300;2022-10-31T15:50:27;14.90;99.90
43987;DHT22;29650;47.378;8.300;2022-10-31T15:52:55;14.90;99.90
43987;DHT22;29650;47.378;8.300;2022-10-31T15:55:24;14.80;99.90
43987;DHT22;29650;47.378;8.300;2022-10-31T15:57:56;14.70;99.90
43987;DHT22;29650;47.378;8.300;2022-10-31T16:00:28;14.70;99.90